Airfield :
LOGIN :

Register | Disclaimer

   EN    FR    IT 

 










Legend :    VFR   Marginal VFR   IFR   Intensive IFR   Very Intensive IFR
Visi :
Ceiling :
>= 8 km
>= 3000ft
5 to 8 km
1000 to 3000 ft
1500m to 5 km
500 to 1000 ft
800 to 1500m
200 to 500 ft
< 800m
< 200 ft
Symbols :   Thunderstorms  Fog  Heavy snow  Heavy precipitations  Wind > 20 kt
SIGMETs :     Misc.  Thunderstorms  Icing  Turbulence  Mountain Waves  Volcanic Ashes






- Airport Elevation : 327 ft
- IATA code : BHX


EGBB - Birmingham

CURRENT METAR :
  • 152350Z 15007KT CAVOK 09/08 Q1002

EXPIRED METARs :
  • 152320Z 15007KT CAVOK 09/08 Q1003
  • 152250Z 15005KT CAVOK 08/07 Q1003
  • 152220Z 14004KT CAVOK 08/07 Q1003
  • 152150Z 17004KT CAVOK 09/08 Q1003
  • 152120Z 17003KT CAVOK 09/08 Q1003

TAF TAF EGBB
Valid from the 16 at 00:00 until the 17 at 00:00 UTC


152256Z 1600/1624 15009KT 9999 SCT025
BECMG 1600/1603 BKN010
TEMPO 1602/1608 6000 RA BKN006
PROB30
TEMPO 1602/1607 3000 +RA RADZ BKN003
BECMG 1606/1609 27010KT SCT025
BECMG 1618/1621 20004KT
ATIS : +44 121 780 0910



MET'MAP, your aeronautical weather chart ! - Copyright ORBIFLY December 2007 - Disclaimer

ORBIFLY MET'MAP TEAM :

Programming & Development : Alexandra Zaïnal
Concept & Development : Baudouin d'Aumeries
Co-Development & Prog : Marc-Olivier Méhu
Technical & hardware support : Manuel Goepfert

Contact : metmap@orbifly.com




SOURCES & CREDITS :

   NOAA